createdAt,value
2019-02-09T05:33:52.934Z,2.80
2019-02-09T05:36:21.395Z,2.97
2019-02-09T05:38:49.831Z,2.83
2019-02-09T05:41:18.264Z,2.73
2019-02-09T05:47:15.867Z,2.47
2019-02-09T05:49:44.356Z,2.33
2019-02-09T05:52:12.786Z,2.60
2019-02-09T05:54:41.532Z,2.50
2019-02-09T05:57:09.987Z,2.23
2019-02-09T05:59:38.424Z,2.30
2019-02-09T06:02:06.847Z,2.23
2019-02-09T06:04:35.570Z,2.40
2019-02-09T06:07:04.171Z,2.40
2019-02-09T06:09:32.607Z,2.50
2019-02-09T06:12:01.335Z,2.30
2019-02-09T06:14:29.771Z,2.30
2019-02-09T06:16:58.477Z,2.10
2019-02-09T06:19:26.935Z,2.07
2019-02-09T06:21:55.691Z,2.27
2019-02-09T06:24:24.116Z,2.10
2019-02-09T06:26:52.731Z,2.00
2019-02-09T06:29:21.155Z,2.10
2019-02-09T06:31:49.595Z,2.07
2019-02-09T06:34:18.047Z,2.30
2019-02-09T06:36:46.483Z,2.30
2019-02-09T06:39:14.915Z,2.33
2019-02-09T06:41:43.428Z,2.10
2019-02-09T06:44:12.156Z,1.90
2019-02-09T06:50:12.002Z,2.40
2019-02-09T06:52:40.595Z,2.00
2019-02-09T06:55:12.166Z,1.80
2019-02-09T07:01:09.485Z,2.07
2019-02-09T07:03:37.967Z,1.93
2019-02-09T07:06:06.670Z,1.90
2019-02-09T07:08:35.090Z,1.90
2019-02-09T07:11:03.895Z,2.00
2019-02-09T07:13:32.435Z,1.90
2019-02-09T07:16:00.931Z,2.00
2019-02-09T07:18:29.628Z,1.90
2019-02-09T07:20:58.056Z,2.17
2019-02-09T07:23:26.839Z,2.10
2019-02-09T07:29:24.254Z,2.00
2019-02-09T07:31:56.478Z,2.00
2019-02-09T07:37:52.094Z,2.00
2019-02-09T07:40:25.566Z,2.10
2019-02-09T07:46:35.420Z,2.00
2019-02-09T07:56:13.683Z,2.00
2019-02-09T08:02:11.307Z,1.90
2019-02-09T08:08:08.932Z,2.00
2019-02-09T08:10:39.062Z,2.20
2019-02-09T08:13:09.288Z,2.10
2019-02-09T08:15:38.459Z,2.40
2019-02-09T08:18:08.360Z,2.00
2019-02-09T08:20:37.562Z,2.00
2019-02-09T08:23:10.670Z,1.83
2019-02-09T08:25:40.570Z,2.23
2019-02-09T08:28:11.232Z,2.13
2019-02-09T08:30:47.667Z,2.30
2019-02-09T08:36:57.356Z,2.50
2019-02-09T08:39:25.787Z,2.20
2019-02-09T08:41:54.222Z,2.13
2019-02-09T08:47:52.023Z,2.23
2019-02-09T08:50:23.502Z,2.10
2019-02-09T08:56:32.961Z,2.30
2019-02-09T08:59:01.698Z,1.90
2019-02-09T09:01:30.126Z,2.10
2019-02-09T09:03:58.866Z,2.20
2019-02-09T09:06:27.339Z,2.40
2019-02-09T09:12:25.620Z,2.03
2019-02-09T09:14:54.265Z,1.90
2019-02-09T09:21:06.510Z,2.10
2019-02-09T09:27:03.952Z,2.37
2019-02-09T09:29:32.382Z,2.10
2019-02-09T09:32:00.811Z,2.20
2019-02-09T09:34:29.449Z,2.30
2019-02-09T09:40:41.085Z,2.27
2019-02-09T09:46:50.290Z,2.30
2019-02-09T09:49:18.988Z,2.30
2019-02-09T09:51:47.880Z,1.90
2019-02-09T09:57:45.232Z,2.17
2019-02-09T10:03:42.747Z,1.83
2019-02-09T10:09:39.394Z,1.97
2019-02-09T10:15:36.243Z,1.80
2019-02-09T10:18:05.115Z,2.03
2019-02-09T10:24:02.463Z,2.00
2019-02-09T10:26:31.485Z,2.07
2019-02-09T10:32:44.443Z,2.00
2019-02-09T10:38:52.055Z,2.03
2019-02-09T10:41:20.661Z,1.97
2019-02-09T10:43:49.313Z,2.00
2019-02-09T10:46:18.228Z,1.73
2019-02-09T10:48:46.802Z,1.87
2019-02-09T10:54:43.542Z,2.03
2019-02-09T10:57:12.252Z,1.67
2019-02-09T11:03:09.602Z,1.87
2019-02-09T11:05:38.065Z,1.67
2019-02-09T11:11:47.574Z,1.67
2019-02-09T11:14:15.994Z,1.63
2019-02-09T11:20:16.276Z,1.70
2019-02-09T11:22:44.787Z,1.73
2019-02-09T11:28:54.202Z,1.80
2019-02-09T11:31:23.731Z,1.83
2019-02-09T11:37:21.991Z,1.77
2019-02-09T11:43:19.970Z,2.00
2019-02-09T11:45:48.794Z,1.90
2019-02-09T11:48:17.299Z,1.97
2019-02-09T11:50:45.735Z,1.70
2019-02-09T11:56:43.667Z,1.73
2019-02-09T11:59:12.577Z,1.70
2019-02-09T12:01:41.019Z,2.10
2019-02-09T12:04:09.747Z,1.77
2019-02-09T12:06:38.597Z,1.90
2019-02-09T12:09:08.067Z,1.97
2019-02-09T12:11:37.042Z,1.83
2019-02-09T12:14:06.555Z,1.83
2019-02-09T12:20:18.688Z,1.67
2019-02-09T12:26:28.210Z,1.77
2019-02-09T12:28:56.648Z,1.80
2019-02-09T12:34:54.222Z,1.60
2019-02-09T12:40:51.255Z,1.67
2019-02-09T12:46:48.630Z,1.53
2019-02-09T12:49:17.329Z,1.70
2019-02-09T12:51:45.759Z,1.80
2019-02-09T12:54:14.190Z,1.60
2019-02-09T13:00:26.303Z,1.60
2019-02-09T13:03:52.740Z,1.73
2019-02-09T13:06:21.535Z,1.70
2019-02-09T13:08:49.991Z,1.87
2019-02-09T13:11:18.455Z,1.50
2019-02-09T13:13:46.889Z,1.90
2019-02-09T13:16:15.675Z,1.70
2019-02-09T13:18:44.148Z,1.30
2019-02-09T13:24:54.100Z,1.40
2019-02-09T13:27:22.542Z,1.43
2019-02-09T13:29:50.973Z,1.47
2019-02-09T13:32:19.870Z,1.43
2019-02-09T13:34:48.670Z,1.67
2019-02-09T13:37:17.163Z,1.47
2019-02-09T13:43:14.551Z,1.33
2019-02-09T13:45:46.393Z,1.37
2019-02-09T13:51:56.492Z,1.60
2019-02-09T13:54:24.914Z,1.27
2019-02-09T13:56:53.374Z,1.37
2019-02-09T13:59:22.454Z,1.23
2019-02-09T14:05:32.110Z,1.30
2019-02-09T14:08:00.809Z,1.30
2019-02-09T14:13:58.423Z,1.60
2019-02-09T14:19:55.439Z,1.40
2019-02-09T14:25:53.022Z,1.30
2019-02-09T14:31:49.863Z,1.33
2019-02-09T14:37:48.203Z,1.40
2019-02-09T14:40:30.443Z,1.40
2019-02-09T14:46:40.290Z,1.80
2019-02-09T14:49:08.718Z,1.37
2019-02-09T14:51:37.152Z,1.47
2019-02-09T14:54:05.955Z,1.50
2019-02-09T15:00:22.299Z,2.00
2019-02-09T15:02:53.856Z,1.63
2019-02-09T15:08:49.835Z,1.50
2019-02-09T15:14:47.714Z,1.43
2019-02-09T15:20:47.700Z,2.10
2019-02-09T15:26:44.936Z,1.70
2019-02-09T15:29:13.367Z,1.73
2019-02-09T15:31:42.001Z,1.40
2019-02-09T15:34:10.641Z,1.60
2019-02-09T15:36:39.143Z,1.63
2019-02-09T15:39:08.833Z,1.70
2019-02-09T15:41:37.491Z,1.50
2019-02-09T15:44:05.989Z,1.40
2019-02-09T15:46:34.812Z,1.27
2019-02-09T15:49:03.311Z,1.20
2019-02-09T15:51:31.738Z,1.47
2019-02-09T15:54:00.191Z,1.45
2019-02-09T15:56:28.625Z,1.50
2019-02-09T15:58:57.352Z,1.50
2019-02-09T16:01:25.972Z,1.40
2019-02-09T16:03:54.721Z,1.50
2019-02-09T16:06:23.165Z,1.33
2019-02-09T16:08:51.896Z,1.60
2019-02-09T16:11:20.334Z,1.10
2019-02-09T16:13:49.854Z,1.37
2019-02-09T16:16:18.785Z,1.13
2019-02-09T16:18:49.307Z,1.30
2019-02-09T16:21:17.904Z,1.47
2019-02-09T16:23:46.366Z,1.70
2019-02-09T16:26:15.080Z,1.30
2019-02-09T16:28:43.527Z,1.40
2019-02-09T16:34:40.758Z,1.40
2019-02-09T16:40:16.925Z,1.60
2019-02-09T16:42:45.738Z,1.30
2019-02-09T16:48:55.223Z,1.60
2019-02-09T16:51:23.666Z,1.80
2019-02-09T16:57:21.219Z,1.30
2019-02-09T16:59:49.913Z,1.30
2019-02-09T17:02:18.492Z,1.50
2019-02-09T17:08:28.135Z,1.60
2019-02-09T17:14:38.373Z,1.33
2019-02-09T17:17:06.803Z,1.50
2019-02-09T17:19:36.863Z,1.57
2019-02-09T17:22:05.462Z,1.67
2019-02-09T17:24:34.146Z,1.50
2019-02-09T17:27:02.572Z,1.70
2019-02-09T17:29:31.042Z,1.57
2019-02-09T17:35:17.422Z,1.80
2019-02-09T17:41:27.207Z,1.60
2019-02-09T17:47:36.519Z,2.00
2019-02-09T17:53:33.711Z,2.10
2019-02-09T17:56:02.210Z,1.73
2019-02-09T17:58:30.814Z,2.50
2019-02-09T18:01:01.315Z,2.20
2019-02-09T18:03:30.106Z,1.83
2019-02-09T18:05:58.543Z,1.80
2019-02-09T18:08:27.487Z,2.00
2019-02-09T18:10:55.924Z,1.73
2019-02-09T18:13:24.763Z,1.70
2019-02-09T18:15:53.314Z,2.47
2019-02-09T18:18:21.743Z,1.90
2019-02-09T18:24:18.739Z,2.13
2019-02-09T18:26:47.614Z,2.07
2019-02-09T18:29:16.048Z,2.17
2019-02-09T18:31:44.484Z,2.07
2019-02-09T18:34:13.291Z,2.20
2019-02-09T18:36:41.722Z,2.03
2019-02-09T18:42:39.026Z,2.80
2019-02-09T18:45:10.670Z,2.50
2019-02-09T18:47:39.416Z,2.90
2019-02-09T18:50:10.920Z,2.00
2019-02-09T18:52:39.601Z,2.53
2019-02-09T18:55:11.107Z,2.37
2019-02-09T19:01:08.642Z,2.27
2019-02-09T19:03:37.194Z,2.60
2019-02-09T19:06:05.792Z,2.77
2019-02-09T19:11:38.769Z,3.00
2019-02-09T19:14:07.299Z,2.30
2019-02-09T19:16:35.727Z,3.13
2019-02-09T19:19:05.270Z,2.70
2019-02-09T19:21:34.105Z,2.60
2019-02-09T19:24:02.539Z,2.13
2019-02-09T19:26:30.967Z,2.57
2019-02-09T19:28:59.816Z,2.50
2019-02-09T19:31:28.242Z,2.63
2019-02-09T19:33:56.678Z,2.40
2019-02-09T19:36:25.138Z,2.80
2019-02-09T19:42:35.153Z,2.37
2019-02-09T19:45:07.978Z,2.77
2019-02-09T19:47:36.429Z,2.53
2019-02-09T19:50:08.007Z,3.00
2019-02-09T19:52:36.434Z,2.63
2019-02-09T19:55:08.009Z,2.50
2019-02-09T19:57:36.510Z,4.30
2019-02-09T20:00:13.910Z,2.40
2019-02-09T20:02:42.688Z,2.30
2019-02-09T20:05:11.583Z,2.40
2019-02-09T20:07:40.043Z,2.53
2019-02-09T20:13:26.265Z,2.30
2019-02-09T20:19:35.822Z,2.60
2019-02-09T20:25:45.822Z,2.47
2019-02-09T20:28:14.268Z,2.50
